Terminal Aerodrome Forecast
Issued by NWS Charleston, WV

Current Version | Previous Version | Graphics & Text | Print | Product List | Glossary On
Versions: 1 2 3 4 5 6 7 8 9 10 11 12 13 14 15 16 17 18 19 20 21 22 23 24 25 26 27
000
FTUS41 KRLX 222336
TAFPKB
TAF
KPKB 222336Z 2300/2324 15002KT P6SM BKN250
     FM230400 17006KT P6SM BKN250
     FM231100 14006KT P6SM BKN100
     FM231800 15010G18KT P6SM SHRA OVC050
     FM232000 15011G20KT 4SM SHRA OVC030
     FM232100 15011KT 2SM SHRA OVC025=

USA.gov is the U.S. government's official web portal to all federal, state and local government web resources and services.